Time,TemperatureF,DewpointF,PressureIn,WindDirection,WindDirectionDegrees,WindSpeedMPH,WindSpeedGustMPH,Humidity,HourlyPrecipIn,Conditions,Clouds,dailyrainin,SoftwareType,DateUTC
2013-03-09 00:05:00,56.7,52.0,30.14,NNW,329,0.0,-999.0,83,-99.99,,,0.00,weatherlink.com 1.10,2013-03-09 05:05:00,
2013-03-09 00:20:00,56.2,51.0,30.14,NNW,329,0.0,-999.0,83,-99.99,,,0.00,weatherlink.com 1.10,2013-03-09 05:20:00,
2013-03-09 00:35:00,55.8,51.0,30.14,NNW,329,0.0,-999.0,84,-99.99,,,0.00,weatherlink.com 1.10,2013-03-09 05:35:00,
2013-03-09 00:51:00,55.6,51.0,30.14,NNW,330,0.0,-999.0,85,-99.99,,,0.00,weatherlink.com 1.10,2013-03-09 05:51:00,
2013-03-09 01:06:00,55.4,51.0,30.14,NNW,329,0.0,-999.0,85,-99.99,,,0.00,weatherlink.com 1.10,2013-03-09 06:06:00,
2013-03-09 01:21:00,55.4,51.0,30.14,NNW,329,0.0,-999.0,86,-99.99,,,0.00,weatherlink.com 1.10,2013-03-09 06:21:00,
2013-03-09 01:36:00,55.5,51.0,30.13,NNW,330,0.0,-999.0,85,-99.99,,,0.00,weatherlink.com 1.10,2013-03-09 06:36:00,
2013-03-09 01:51:00,55.6,51.0,30.13,NNW,330,0.0,-999.0,84,-99.99,,,0.00,weatherlink.com 1.10,2013-03-09 06:51:00,
2013-03-09 02:06:00,55.2,51.0,30.12,NNW,329,0.0,-999.0,85,-99.99,,,0.00,weatherlink.com 1.10,2013-03-09 07:06:00,
2013-03-09 02:21:00,55.3,51.0,30.12,NNW,330,0.0,-999.0,85,-99.99,,,0.00,weatherlink.com 1.10,2013-03-09 07:21:00,
2013-03-09 02:36:00,54.8,51.0,30.12,NNW,329,0.0,-999.0,86,-99.99,,,0.00,weatherlink.com 1.10,2013-03-09 07:36:00,
2013-03-09 02:51:00,54.0,50.0,30.11,NNW,329,0.0,-999.0,87,-99.99,,,0.00,weatherlink.com 1.10,2013-03-09 07:51:00,
2013-03-09 03:06:00,53.4,50.0,30.10,NNW,329,0.0,-999.0,88,-99.99,,,0.00,weatherlink.com 1.10,2013-03-09 08:06:00,
2013-03-09 03:21:00,53.4,50.0,30.10,NNW,330,0.0,-999.0,89,-99.99,,,0.00,weatherlink.com 1.10,2013-03-09 08:21:00,
2013-03-09 03:36:00,53.9,51.0,30.10,NNW,329,0.0,-999.0,89,-99.99,,,0.00,weatherlink.com 1.10,2013-03-09 08:36:00,
2013-03-09 03:51:00,54.2,51.0,30.10,NNW,329,0.0,-999.0,89,-99.99,,,0.00,weatherlink.com 1.10,2013-03-09 08:51:00,
2013-03-09 04:06:00,54.4,51.0,30.11,NNW,329,0.0,-999.0,89,-99.99,,,0.00,weatherlink.com 1.10,2013-03-09 09:06:00,
2013-03-09 04:21:00,55.0,51.0,30.09,NW,326,0.0,-999.0,87,-99.99,,,0.00,weatherlink.com 1.10,2013-03-09 09:21:00,
2013-03-09 04:36:00,55.0,51.0,30.09,NW,325,0.0,-999.0,87,-99.99,,,0.00,weatherlink.com 1.10,2013-03-09 09:36:00,
2013-03-09 04:51:00,54.7,52.0,30.10,NW,325,0.0,-999.0,89,-99.99,,,0.00,weatherlink.com 1.10,2013-03-09 09:51:00,
2013-03-09 05:06:00,55.3,51.0,30.11,NW,318,1.0,-999.0,86,-99.99,,,0.00,weatherlink.com 1.10,2013-03-09 10:06:00,
2013-03-09 05:21:00,55.3,52.0,30.11,NW,319,0.0,-999.0,87,-99.99,,,0.00,weatherlink.com 1.10,2013-03-09 10:21:00,
2013-03-09 05:36:00,55.1,51.0,30.12,WNW,302,0.0,-999.0,87,-99.99,,,0.00,weatherlink.com 1.10,2013-03-09 10:36:00,
2013-03-09 05:51:00,54.9,52.0,30.12,NW,317,0.0,-999.0,89,-99.99,,,0.00,weatherlink.com 1.10,2013-03-09 10:51:00,
2013-03-09 06:06:00,54.5,52.0,30.12,NW,313,0.0,-999.0,90,-99.99,,,0.00,weatherlink.com 1.10,2013-03-09 11:06:00,
2013-03-09 06:21:00,54.4,52.0,30.12,NNW,329,0.0,-999.0,91,-99.99,,,0.00,weatherlink.com 1.10,2013-03-09 11:21:00,
2013-03-09 06:36:00,54.2,52.0,30.13,NW,320,0.0,-999.0,92,-99.99,,,0.00,weatherlink.com 1.10,2013-03-09 11:36:00,
2013-03-09 06:51:00,54.1,52.0,30.13,NW,316,0.0,-999.0,92,-99.99,,,0.00,weatherlink.com 1.10,2013-03-09 11:51:00,
2013-03-09 07:06:00,54.1,52.0,30.14,NNW,348,0.0,-999.0,92,-99.99,,,0.00,weatherlink.com 1.10,2013-03-09 12:06:00,
2013-03-09 07:21:00,54.7,53.0,30.14,NW,325,1.0,-999.0,92,-99.99,,,0.00,weatherlink.com 1.10,2013-03-09 12:21:00,
2013-03-09 07:36:00,55.6,53.0,30.15,NW,323,0.0,-999.0,91,-99.99,,,0.00,weatherlink.com 1.10,2013-03-09 12:36:00,
2013-03-09 07:51:00,56.8,54.0,30.16,NW,325,0.0,-999.0,89,-99.99,,,0.00,weatherlink.com 1.10,2013-03-09 12:51:00,
2013-03-09 08:06:00,57.9,54.0,30.16,NW,315,1.0,-999.0,87,-99.99,,,0.00,weatherlink.com 1.10,2013-03-09 13:06:00,
2013-03-09 08:21:00,59.2,54.0,30.16,NW,326,1.0,-999.0,84,-99.99,,,0.00,weatherlink.com 1.10,2013-03-09 13:21:00,
2013-03-09 08:36:00,60.9,55.0,30.17,NNW,344,2.0,-999.0,81,-99.99,,,0.00,weatherlink.com 1.10,2013-03-09 13:36:00,
2013-03-09 08:51:00,63.1,56.0,30.17,NNE,19,0.0,-999.0,77,-99.99,,,0.00,weatherlink.com 1.10,2013-03-09 13:51:00,
2013-03-09 09:07:00,65.4,57.0,30.17,NW,309,0.0,-999.0,73,-99.99,,,0.00,weatherlink.com 1.10,2013-03-09 14:07:00,
2013-03-09 09:22:00,67.8,57.0,30.17,NNW,346,3.0,-999.0,69,-99.99,,,0.00,weatherlink.com 1.10,2013-03-09 14:22:00,
2013-03-09 09:37:00,69.1,57.0,30.17,NNW,329,2.0,-999.0,65,-99.99,,,0.00,weatherlink.com 1.10,2013-03-09 14:37:00,
2013-03-09 09:52:00,70.2,57.0,30.17,NW,307,5.0,-999.0,64,-99.99,,,0.00,weatherlink.com 1.10,2013-03-09 14:52:00,
2013-03-09 10:07:00,71.8,57.0,30.17,NE,40,2.0,-999.0,60,-99.99,,,0.00,weatherlink.com 1.10,2013-03-09 15:07:00,
2013-03-09 10:22:00,72.4,57.0,30.17,ESE,110,5.0,-999.0,58,-99.99,,,0.00,weatherlink.com 1.10,2013-03-09 15:22:00,
2013-03-09 10:37:00,72.5,56.0,30.18,ENE,66,3.0,-999.0,57,-99.99,,,0.00,weatherlink.com 1.10,2013-03-09 15:37:00,
2013-03-09 10:52:00,72.0,56.0,30.18,ENE,64,5.0,-999.0,58,-99.99,,,0.00,weatherlink.com 1.10,2013-03-09 15:52:00,
2013-03-09 11:07:00,72.7,56.0,30.17,ENE,59,5.0,-999.0,56,-99.99,,,0.00,weatherlink.com 1.10,2013-03-09 16:07:00,
2013-03-09 11:22:00,72.9,55.0,30.18,NW,309,4.0,-999.0,54,-99.99,,,0.00,weatherlink.com 1.10,2013-03-09 16:22:00,
2013-03-09 11:37:00,74.1,56.0,30.17,NNE,19,2.0,-999.0,54,-99.99,,,0.00,weatherlink.com 1.10,2013-03-09 16:37:00,
2013-03-09 11:52:00,74.4,56.0,30.17,ESE,115,0.0,-999.0,53,-99.99,,,0.00,weatherlink.com 1.10,2013-03-09 16:52:00,
2013-03-09 12:07:00,74.8,56.0,30.16,NE,49,4.0,-999.0,52,-99.99,,,0.00,weatherlink.com 1.10,2013-03-09 17:07:00,
2013-03-09 12:22:00,74.9,56.0,30.16,NE,40,5.0,-999.0,52,-99.99,,,0.00,weatherlink.com 1.10,2013-03-09 17:22:00,
2013-03-09 12:37:00,75.1,55.0,30.15,ENE,69,6.0,-999.0,50,-99.99,,,0.00,weatherlink.com 1.10,2013-03-09 17:37:00,
2013-03-09 12:52:00,75.5,57.0,30.16,ENE,70,3.0,-999.0,52,-99.99,,,0.00,weatherlink.com 1.10,2013-03-09 17:52:00,
2013-03-09 13:07:00,76.1,57.0,30.15,NNE,32,2.0,-999.0,52,-99.99,,,0.00,weatherlink.com 1.10,2013-03-09 18:07:00,
2013-03-09 13:22:00,74.5,57.0,30.14,East,98,6.0,-999.0,55,-99.99,,,0.00,weatherlink.com 1.10,2013-03-09 18:22:00,
2013-03-09 13:37:00,74.0,57.0,30.14,East,97,5.0,-999.0,55,-99.99,,,0.00,weatherlink.com 1.10,2013-03-09 18:37:00,
2013-03-09 13:52:00,73.5,57.0,30.13,NE,36,5.0,-999.0,56,-99.99,,,0.00,weatherlink.com 1.10,2013-03-09 18:52:00,
2013-03-09 14:07:00,74.9,58.0,30.13,NE,49,1.0,-999.0,55,-99.99,,,0.00,weatherlink.com 1.10,2013-03-09 19:07:00,
2013-03-09 14:22:00,73.8,57.0,30.13,ENE,58,2.0,-999.0,56,-99.99,,,0.00,weatherlink.com 1.10,2013-03-09 19:22:00,
2013-03-09 14:37:00,72.9,57.0,30.13,East,84,2.0,-999.0,57,-99.99,,,0.00,weatherlink.com 1.10,2013-03-09 19:37:00,
2013-03-09 14:52:00,72.4,57.0,30.12,ESE,115,4.0,-999.0,59,-99.99,,,0.00,weatherlink.com 1.10,2013-03-09 19:52:00,
2013-03-09 15:07:00,72.1,56.0,30.12,NE,52,6.0,-999.0,58,-99.99,,,0.00,weatherlink.com 1.10,2013-03-09 20:07:00,
2013-03-09 15:22:00,72.6,56.0,30.11,ENE,78,2.0,-999.0,57,-99.99,,,0.00,weatherlink.com 1.10,2013-03-09 20:22:00,
2013-03-09 15:36:00,72.5,57.0,30.11,ESE,105,1.0,-999.0,58,-99.99,,,0.00,weatherlink.com 1.10,2013-03-09 20:36:00,
2013-03-09 15:52:00,72.1,56.0,30.12,North,349,3.0,-999.0,57,-99.99,,,0.00,weatherlink.com 1.10,2013-03-09 20:52:00,
2013-03-09 16:07:00,72.1,55.0,30.12,NE,34,3.0,-999.0,56,-99.99,,,0.00,weatherlink.com 1.10,2013-03-09 21:07:00,
2013-03-09 16:22:00,70.5,55.0,30.12,East,89,5.0,-999.0,58,-99.99,,,0.00,weatherlink.com 1.10,2013-03-09 21:22:00,
2013-03-09 16:37:00,70.1,54.0,30.12,East,100,5.0,-999.0,58,-99.99,,,0.00,weatherlink.com 1.10,2013-03-09 21:37:00,
2013-03-09 16:52:00,69.7,54.0,30.12,ENE,58,8.0,-999.0,58,-99.99,,,0.00,weatherlink.com 1.10,2013-03-09 21:52:00,
2013-03-09 17:07:00,69.3,54.0,30.12,East,80,0.0,-999.0,59,-99.99,,,0.00,weatherlink.com 1.10,2013-03-09 22:07:00,
2013-03-09 17:21:00,69.1,54.0,30.13,ENE,61,1.0,-999.0,59,-99.99,,,0.00,weatherlink.com 1.10,2013-03-09 22:21:00,
2013-03-09 17:37:00,68.7,54.0,30.13,NE,35,2.0,-999.0,59,-99.99,,,0.00,weatherlink.com 1.10,2013-03-09 22:37:00,
2013-03-09 17:52:00,68.3,53.0,30.14,East,94,2.0,-999.0,58,-99.99,,,0.00,weatherlink.com 1.10,2013-03-09 22:52:00,
2013-03-09 18:07:00,68.0,53.0,30.14,NE,50,0.0,-999.0,59,-99.99,,,0.00,weatherlink.com 1.10,2013-03-09 23:07:00,
2013-03-09 18:22:00,67.5,53.0,30.14,ENE,64,1.0,-999.0,60,-99.99,,,0.00,weatherlink.com 1.10,2013-03-09 23:22:00,
2013-03-09 18:37:00,67.2,53.0,30.14,NE,55,6.0,-999.0,61,-99.99,,,0.00,weatherlink.com 1.10,2013-03-09 23:37:00,
2013-03-09 18:51:00,66.8,53.0,30.14,NE,51,1.0,-999.0,62,-99.99,,,0.00,weatherlink.com 1.10,2013-03-09 23:51:00,
2013-03-09 19:07:00,66.8,53.0,30.14,West,267,1.0,-999.0,62,-99.99,,,0.00,weatherlink.com 1.10,2013-03-10 00:07:00,
2013-03-09 19:22:00,66.6,53.0,30.14,ENE,59,3.0,-999.0,62,-99.99,,,0.00,weatherlink.com 1.10,2013-03-10 00:22:00,
2013-03-09 19:37:00,66.4,53.0,30.14,NE,36,1.0,-999.0,62,-99.99,,,0.00,weatherlink.com 1.10,2013-03-10 00:37:00,
2013-03-09 19:52:00,66.1,53.0,30.15,NE,56,1.0,-999.0,63,-99.99,,,0.00,weatherlink.com 1.10,2013-03-10 00:52:00,
2013-03-09 20:07:00,66.1,53.0,30.15,NE,43,0.0,-999.0,64,-99.99,,,0.00,weatherlink.com 1.10,2013-03-10 01:07:00,
2013-03-09 20:22:00,66.1,54.0,30.17,NE,39,0.0,-999.0,65,-99.99,,,0.00,weatherlink.com 1.10,2013-03-10 01:22:00,
2013-03-09 20:37:00,66.0,53.0,30.16,ENE,70,1.0,-999.0,64,-99.99,,,0.00,weatherlink.com 1.10,2013-03-10 01:37:00,
2013-03-09 20:52:00,65.9,53.0,30.17,East,80,0.0,-999.0,64,-99.99,,,0.00,weatherlink.com 1.10,2013-03-10 01:52:00,
2013-03-09 21:07:00,65.5,53.0,30.17,NE,56,0.0,-999.0,65,-99.99,,,0.00,weatherlink.com 1.10,2013-03-10 02:07:00,
2013-03-09 21:23:00,65.1,54.0,30.18,ENE,57,0.0,-999.0,67,-99.99,,,0.00,weatherlink.com 1.10,2013-03-10 02:23:00,
2013-03-09 21:37:00,65.5,54.0,30.18,ENE,65,0.0,-999.0,66,-99.99,,,0.00,weatherlink.com 1.10,2013-03-10 02:37:00,
2013-03-09 21:52:00,65.3,54.0,30.17,ENE,60,0.0,-999.0,67,-99.99,,,0.00,weatherlink.com 1.10,2013-03-10 02:52:00,
2013-03-09 22:07:00,65.2,54.0,30.17,ENE,62,1.0,-999.0,67,-99.99,,,0.00,weatherlink.com 1.10,2013-03-10 03:07:00,
2013-03-09 22:22:00,65.4,54.0,30.17,ENE,71,1.0,-999.0,67,-99.99,,,0.00,weatherlink.com 1.10,2013-03-10 03:22:00,
2013-03-09 22:37:00,65.6,53.0,30.16,ENE,65,1.0,-999.0,65,-99.99,,,0.00,weatherlink.com 1.10,2013-03-10 03:37:00,
2013-03-09 22:52:00,65.9,54.0,30.15,ESE,113,0.0,-999.0,65,-99.99,,,0.00,weatherlink.com 1.10,2013-03-10 03:52:00,
2013-03-09 23:08:00,66.1,54.0,30.16,NNE,29,0.0,-999.0,66,-99.99,,,0.00,weatherlink.com 1.10,2013-03-10 04:08:00,
2013-03-09 23:22:00,66.7,54.0,30.16,ENE,73,0.0,-999.0,65,-99.99,,,0.00,weatherlink.com 1.10,2013-03-10 04:22:00,
2013-03-09 23:37:00,66.6,54.0,30.16,ENE,61,1.0,-999.0,64,-99.99,,,0.00,weatherlink.com 1.10,2013-03-10 04:37:00,
2013-03-09 23:52:00,66.6,54.0,30.16,ESE,110,0.0,-999.0,65,-99.99,,,0.00,weatherlink.com 1.10,2013-03-10 04:52:00,